createdAt,value
2022-12-12T00:01:52.336Z,11.82
2022-12-12T00:04:19.262Z,13.00
2022-12-12T00:06:52.042Z,11.70
2022-12-12T00:09:25.422Z,11.57
2022-12-12T00:11:52.318Z,11.88
2022-12-12T00:14:19.222Z,12.38
2022-12-12T00:16:52.302Z,12.30
2022-12-12T00:19:19.177Z,10.82
2022-12-12T00:21:46.002Z,12.32
2022-12-12T00:24:19.239Z,12.20
2022-12-12T00:26:53.422Z,11.32
2022-12-12T00:29:20.352Z,10.27
2022-12-12T00:31:54.341Z,11.82
2022-12-12T00:34:21.451Z,12.80
2022-12-12T00:36:48.371Z,11.27
2022-12-12T00:39:21.293Z,13.45
2022-12-12T00:41:48.533Z,12.05
2022-12-12T00:44:22.295Z,10.60
2022-12-12T00:46:55.264Z,10.90
2022-12-12T00:49:29.271Z,11.18
2022-12-12T00:52:03.302Z,12.55
2022-12-12T00:54:30.331Z,11.25
2022-12-12T00:57:03.320Z,12.60
2022-12-12T00:59:36.309Z,12.00
2022-12-12T01:02:10.375Z,14.18
2022-12-12T01:04:37.365Z,14.30
2022-12-12T01:07:04.198Z,14.70
2022-12-12T01:09:37.335Z,14.45
2022-12-12T01:12:04.357Z,16.10
2022-12-12T01:14:31.443Z,13.95
2022-12-12T01:17:05.454Z,15.80
2022-12-12T01:19:32.849Z,16.48
2022-12-12T01:21:59.918Z,15.10
2022-12-12T01:24:33.666Z,14.15
2022-12-12T01:27:00.527Z,15.15
2022-12-12T01:29:27.760Z,13.40
2022-12-12T01:32:01.336Z,13.48
2022-12-12T01:34:28.171Z,13.95
2022-12-12T01:37:01.341Z,12.38
2022-12-12T01:39:34.590Z,13.95
2022-12-12T01:42:01.417Z,15.88
2022-12-12T01:44:56.571Z,13.10
2022-12-12T01:47:24.649Z,14.57
2022-12-12T01:50:16.374Z,14.25
2022-12-12T01:52:56.357Z,13.20
2022-12-12T01:55:23.669Z,12.93
2022-12-12T01:57:54.615Z,15.30
2022-12-12T02:00:28.433Z,14.88
2022-12-12T02:02:56.592Z,16.33
2022-12-12T02:05:39.454Z,14.85
2022-12-12T02:08:14.576Z,13.13
2022-12-12T02:10:41.720Z,15.65
2022-12-12T02:13:27.485Z,14.82
2022-12-12T02:16:23.621Z,15.65
2022-12-12T02:19:06.469Z,14.20
2022-12-12T02:21:47.393Z,15.30
2022-12-12T02:25:01.507Z,15.13
2022-12-12T02:28:05.430Z,17.17
2022-12-12T02:31:02.484Z,16.63
2022-12-12T02:33:58.035Z,16.45
2022-12-12T02:36:39.775Z,16.88
2022-12-12T02:39:25.242Z,18.63
2022-12-12T02:42:07.523Z,17.08
2022-12-12T02:44:55.484Z,17.30
2022-12-12T02:47:32.741Z,16.92
2022-12-12T02:50:14.459Z,18.13
2022-12-12T02:52:43.505Z,17.05
2022-12-12T02:55:10.466Z,17.00
2022-12-12T02:57:44.498Z,18.15
2022-12-12T03:00:17.758Z,17.73
2022-12-12T03:03:44.516Z,17.67
2022-12-12T03:06:36.376Z,18.23
2022-12-12T03:09:26.547Z,18.60
2022-12-12T03:11:56.673Z,18.80
2022-12-12T03:14:45.799Z,16.75
2022-12-12T03:17:41.409Z,16.55
2022-12-12T03:20:43.533Z,16.15
2022-12-12T03:23:16.299Z,16.70
2022-12-12T03:26:23.799Z,16.33
2022-12-12T03:29:07.559Z,17.35
2022-12-12T03:31:44.541Z,17.55
2022-12-12T03:34:21.664Z,16.33
2022-12-12T03:37:02.585Z,17.65
2022-12-12T03:39:53.241Z,17.90
2022-12-12T03:42:36.576Z,15.93
2022-12-12T03:45:16.879Z,16.23
2022-12-12T03:48:10.229Z,15.68
2022-12-12T03:50:49.185Z,16.15
2022-12-12T03:53:32.551Z,19.05
2022-12-12T03:56:06.874Z,16.50
2022-12-12T03:58:50.723Z,16.98
2022-12-12T04:01:21.309Z,18.40
2022-12-12T04:04:16.841Z,17.08
2022-12-12T04:07:03.745Z,18.23
2022-12-12T04:09:56.564Z,18.00
2022-12-12T04:12:54.494Z,17.65
2022-12-12T04:15:53.826Z,16.63
2022-12-12T04:18:53.762Z,17.60
2022-12-12T04:22:00.660Z,17.70
2022-12-12T04:24:48.417Z,16.00
2022-12-12T04:27:26.609Z,16.38
2022-12-12T04:30:14.891Z,15.65
2022-12-12T04:33:15.068Z,16.38
2022-12-12T04:35:51.609Z,15.13
2022-12-12T04:38:24.685Z,17.88
2022-12-12T04:41:02.596Z,15.55
2022-12-12T04:43:33.462Z,17.50
2022-12-12T04:46:15.673Z,17.27
2022-12-12T04:48:46.139Z,17.23
2022-12-12T04:51:22.941Z,17.55
2022-12-12T04:54:01.352Z,18.38
2022-12-12T04:56:37.661Z,15.27
2022-12-12T04:59:05.947Z,18.13
2022-12-12T05:01:53.515Z,17.25
2022-12-12T05:04:56.848Z,15.85
2022-12-12T05:07:41.643Z,16.05
2022-12-12T05:10:14.395Z,18.35
2022-12-12T05:12:54.714Z,17.40
2022-12-12T05:15:28.714Z,15.52
2022-12-12T05:18:08.046Z,17.83
2022-12-12T05:20:41.926Z,17.98
2022-12-12T05:23:08.852Z,16.25
2022-12-12T05:25:36.552Z,17.52
2022-12-12T05:28:09.926Z,17.33
2022-12-12T05:30:36.971Z,17.98
2022-12-12T05:33:03.936Z,17.27
2022-12-12T05:35:38.020Z,19.00
2022-12-12T05:38:05.002Z,18.40
2022-12-12T05:40:32.196Z,17.98
2022-12-12T05:43:07.029Z,18.27
2022-12-12T05:45:34.004Z,17.42
2022-12-12T05:48:00.866Z,16.77
2022-12-12T05:50:34.804Z,17.00
2022-12-12T05:53:01.800Z,17.20
2022-12-12T05:55:28.746Z,18.13
2022-12-12T05:58:05.037Z,16.80
2022-12-12T06:00:31.969Z,17.08
2022-12-12T06:02:58.723Z,18.55
2022-12-12T06:05:33.005Z,17.65
2022-12-12T06:07:59.968Z,16.48
2022-12-12T06:10:27.213Z,18.30
2022-12-12T06:13:06.032Z,18.55
2022-12-12T06:15:33.009Z,18.15
2022-12-12T06:18:00.041Z,18.20
2022-12-12T06:20:34.003Z,17.75
2022-12-12T06:23:01.080Z,16.60
2022-12-12T06:25:27.989Z,17.42
2022-12-12T06:28:01.762Z,17.95
2022-12-12T06:30:34.912Z,17.60
2022-12-12T06:33:01.832Z,17.50
2022-12-12T06:35:28.815Z,19.70
2022-12-12T06:38:01.920Z,18.90
2022-12-12T06:40:28.797Z,17.55
2022-12-12T06:42:55.654Z,18.05
2022-12-12T06:45:28.788Z,17.58
2022-12-12T06:47:55.627Z,16.83
2022-12-12T06:50:29.047Z,17.00
2022-12-12T06:53:03.151Z,17.13
2022-12-12T06:55:30.034Z,18.27
2022-12-12T06:57:56.885Z,16.10
2022-12-12T07:00:30.816Z,16.45
2022-12-12T07:03:02.019Z,18.20
2022-12-12T07:05:29.007Z,17.95
2022-12-12T07:08:02.939Z,16.20
2022-12-12T07:10:37.900Z,17.58
2022-12-12T07:13:04.911Z,18.05
2022-12-12T07:15:31.862Z,18.55
2022-12-12T07:18:05.119Z,19.20
2022-12-12T07:20:32.089Z,19.25
2022-12-12T07:22:59.037Z,16.40
2022-12-12T07:25:32.147Z,17.02
2022-12-12T07:27:59.192Z,18.80
2022-12-12T07:30:26.022Z,18.40
2022-12-12T07:32:59.890Z,18.15
2022-12-12T07:35:26.803Z,18.52
2022-12-12T07:37:53.600Z,18.85
2022-12-12T07:40:26.862Z,19.45
2022-12-12T07:42:53.679Z,20.98
2022-12-12T07:45:20.843Z,19.42
2022-12-12T07:47:53.942Z,17.20
2022-12-12T07:50:21.304Z,17.02
2022-12-12T07:52:55.174Z,15.93
2022-12-12T07:55:22.133Z,17.08
2022-12-12T07:57:50.009Z,19.95
2022-12-12T08:00:23.909Z,18.40
2022-12-12T08:02:50.913Z,16.90
2022-12-12T08:05:18.073Z,16.25
2022-12-12T08:07:52.291Z,16.75
2022-12-12T08:10:19.322Z,16.15
2022-12-12T08:12:47.315Z,17.30
2022-12-12T08:15:26.001Z,16.35
2022-12-12T08:20:35.975Z,17.08
2022-12-12T08:25:49.954Z,15.82
2022-12-12T08:28:25.984Z,15.20
2022-12-12T08:30:52.973Z,15.68
2022-12-12T08:33:25.990Z,16.85
2022-12-12T08:35:58.976Z,19.50
2022-12-12T08:38:31.970Z,19.85
2022-12-12T08:41:05.748Z,16.48
2022-12-12T08:43:39.002Z,17.17
2022-12-12T08:46:11.002Z,18.60
2022-12-12T08:48:47.018Z,15.57
2022-12-12T08:51:18.386Z,18.05
2022-12-12T08:53:55.985Z,18.85
2022-12-12T08:56:25.721Z,17.60
2022-12-12T08:58:58.990Z,18.77
2022-12-12T09:01:27.440Z,17.20
2022-12-12T09:04:01.973Z,20.88
2022-12-12T09:06:28.814Z,18.80
2022-12-12T09:09:04.017Z,18.85
2022-12-12T09:11:37.043Z,17.65
2022-12-12T09:14:11.038Z,18.13
2022-12-12T09:16:44.112Z,17.70
2022-12-12T09:19:13.682Z,18.42
2022-12-12T09:21:47.063Z,19.08
2022-12-12T09:24:13.872Z,17.25
2022-12-12T09:26:47.065Z,17.17
2022-12-12T09:29:14.084Z,17.88
2022-12-12T09:31:41.040Z,17.77
2022-12-12T09:34:15.128Z,16.20
2022-12-12T09:36:48.059Z,15.13
2022-12-12T09:39:21.051Z,13.70
2022-12-12T09:41:54.077Z,14.05
2022-12-12T09:44:29.096Z,14.60
2022-12-12T09:47:01.148Z,14.77
2022-12-12T09:49:55.083Z,17.98
2022-12-12T09:52:33.365Z,16.55
2022-12-12T09:55:09.071Z,16.88
2022-12-12T09:57:52.034Z,16.90
2022-12-12T10:00:26.082Z,13.85
2022-12-12T10:03:05.540Z,17.85
2022-12-12T10:06:01.956Z,16.75
2022-12-12T10:08:50.114Z,15.73
2022-12-12T10:11:53.107Z,15.02
2022-12-12T10:17:27.152Z,12.63
2022-12-12T10:20:01.348Z,15.30
2022-12-12T10:22:55.183Z,19.38
2022-12-12T10:25:22.184Z,16.98
2022-12-12T10:28:30.183Z,16.48
2022-12-12T10:31:28.241Z,17.35
2022-12-12T10:34:04.910Z,16.80
2022-12-12T10:37:16.163Z,18.35
2022-12-12T10:39:51.863Z,18.27
2022-12-12T10:42:37.353Z,18.02
2022-12-12T10:45:25.164Z,19.58
2022-12-12T10:47:59.213Z,20.50
2022-12-12T10:50:36.260Z,17.52
2022-12-12T10:53:12.218Z,18.83
2022-12-12T10:55:45.952Z,16.73
2022-12-12T10:58:20.225Z,17.73
2022-12-12T11:00:55.241Z,16.77
2022-12-12T11:03:35.454Z,15.40
2022-12-12T11:06:17.186Z,16.20
2022-12-12T11:08:59.556Z,15.13
2022-12-12T11:11:34.239Z,15.52
2022-12-12T11:14:09.220Z,15.43
2022-12-12T11:16:44.309Z,14.45
2022-12-12T11:19:32.241Z,17.30
2022-12-12T11:22:11.299Z,14.20
2022-12-12T11:24:49.201Z,14.07
2022-12-12T11:27:35.277Z,15.68
2022-12-12T11:30:33.309Z,14.15
2022-12-12T11:33:00.887Z,16.20
2022-12-12T11:35:47.854Z,14.98
2022-12-12T11:38:47.267Z,15.65
2022-12-12T11:41:20.334Z,15.27
2022-12-12T11:43:56.333Z,14.43
2022-12-12T11:46:29.207Z,14.30
2022-12-12T11:49:11.345Z,16.75
2022-12-12T11:51:39.973Z,15.43
2022-12-12T11:54:25.329Z,14.27
2022-12-12T11:57:12.388Z,14.35
2022-12-12T12:00:14.228Z,13.95
2022-12-12T12:03:25.405Z,14.00
2022-12-12T12:05:55.450Z,13.95
2022-12-12T12:08:59.271Z,14.38
2022-12-12T12:12:20.377Z,14.60
2022-12-12T12:15:28.344Z,15.25
2022-12-12T12:18:28.271Z,15.63
2022-12-12T12:21:29.348Z,15.93
2022-12-12T12:24:08.089Z,14.05
2022-12-12T12:26:52.385Z,14.35
2022-12-12T12:29:43.368Z,15.18
2022-12-12T12:33:16.399Z,13.35
2022-12-12T12:36:00.322Z,13.70
2022-12-12T12:38:54.326Z,13.85
2022-12-12T12:41:51.461Z,14.23
2022-12-12T12:44:35.324Z,12.70
2022-12-12T12:47:28.606Z,11.90
2022-12-12T12:50:06.747Z,13.48
2022-12-12T12:52:45.388Z,13.27
2022-12-12T12:55:24.493Z,11.07
2022-12-12T12:57:53.023Z,10.40
2022-12-12T13:00:32.431Z,11.70
2022-12-12T13:03:04.976Z,12.50
2022-12-12T13:06:03.465Z,11.00
2022-12-12T13:08:42.490Z,11.50
2022-12-12T13:11:43.523Z,10.45
2022-12-12T13:14:43.419Z,10.63
2022-12-12T13:19:55.401Z,13.75
2022-12-12T13:22:28.109Z,13.90
2022-12-12T13:25:09.381Z,11.73
2022-12-12T13:27:52.473Z,12.80
2022-12-12T13:30:33.553Z,13.25
2022-12-12T13:33:12.339Z,11.95
2022-12-12T13:35:54.892Z,12.43
2022-12-12T13:38:27.664Z,13.75
2022-12-12T13:41:07.507Z,14.05
2022-12-12T13:43:34.476Z,13.57
2022-12-12T13:46:35.564Z,12.73
2022-12-12T13:49:26.840Z,11.45
2022-12-12T13:52:29.476Z,12.25
2022-12-12T13:55:20.483Z,11.15
2022-12-12T13:58:08.043Z,11.45
2022-12-12T14:00:43.499Z,12.35
2022-12-12T14:03:10.377Z,9.95
2022-12-12T14:05:53.545Z,11.52
2022-12-12T14:08:32.530Z,9.18
2022-12-12T14:11:08.659Z,10.13
2022-12-12T14:13:51.472Z,9.85
2022-12-12T14:16:32.499Z,8.43
2022-12-12T14:19:04.570Z,10.30
2022-12-12T14:21:49.544Z,8.73
2022-12-12T14:24:34.955Z,9.80
2022-12-12T14:27:09.522Z,9.82
2022-12-12T14:29:46.034Z,9.35
2022-12-12T14:32:19.569Z,8.25
2022-12-12T14:35:13.854Z,8.18
2022-12-12T14:38:18.557Z,8.60
2022-12-12T14:40:48.481Z,9.45
2022-12-12T14:43:28.653Z,7.07
2022-12-12T14:46:00.247Z,8.73
2022-12-12T14:48:41.558Z,6.88
2022-12-12T14:51:30.055Z,7.15
2022-12-12T14:54:05.567Z,6.25
2022-12-12T14:56:41.445Z,7.07
2022-12-12T14:59:43.584Z,9.32
2022-12-12T15:02:17.787Z,8.57
2022-12-12T15:05:00.950Z,9.52
2022-12-12T15:07:38.281Z,8.70
2022-12-12T15:10:33.574Z,8.18
2022-12-12T15:13:06.593Z,8.93
2022-12-12T15:15:41.568Z,8.35
2022-12-12T15:18:10.327Z,9.57
2022-12-12T15:20:43.614Z,8.35
2022-12-12T15:23:19.571Z,8.48
2022-12-12T15:26:01.653Z,7.93
2022-12-12T15:28:28.671Z,7.93
2022-12-12T15:31:02.663Z,7.38
2022-12-12T15:33:29.587Z,8.27
2022-12-12T15:36:04.768Z,7.85
2022-12-12T15:38:41.651Z,7.93
2022-12-12T15:41:16.636Z,8.25
2022-12-12T15:43:52.642Z,9.52
2022-12-12T15:46:19.784Z,9.13
2022-12-12T15:48:55.635Z,11.07
2022-12-12T15:51:28.456Z,10.10
2022-12-12T15:54:02.599Z,10.20
2022-12-12T15:56:29.753Z,9.30
2022-12-12T15:59:11.626Z,9.68
2022-12-12T16:01:45.996Z,8.20
2022-12-12T16:04:12.984Z,9.25
2022-12-12T16:06:52.665Z,8.52
2022-12-12T16:09:24.361Z,9.25
2022-12-12T16:12:04.750Z,9.95
2022-12-12T16:14:46.804Z,8.63
2022-12-12T16:17:31.872Z,9.27
2022-12-12T16:20:04.890Z,9.38
2022-12-12T16:22:52.668Z,9.60
2022-12-12T16:25:28.673Z,9.05
2022-12-12T16:28:26.655Z,10.40
2022-12-12T16:30:55.515Z,9.45
2022-12-12T16:33:31.665Z,8.93
2022-12-12T16:36:02.201Z,10.55
2022-12-12T16:38:36.799Z,10.38
2022-12-12T16:41:06.422Z,11.27
2022-12-12T16:43:33.251Z,11.30
2022-12-12T16:46:06.797Z,11.10
2022-12-12T16:48:43.711Z,11.85
2022-12-12T16:51:25.810Z,10.82
2022-12-12T16:53:58.765Z,10.98
2022-12-12T16:56:25.935Z,11.95
2022-12-12T16:58:53.387Z,10.73
2022-12-12T17:01:27.825Z,10.35
2022-12-12T17:03:58.754Z,10.77
2022-12-12T17:06:26.336Z,11.52
2022-12-12T17:08:59.723Z,13.50
2022-12-12T17:11:26.534Z,13.55
2022-12-12T17:13:59.761Z,12.68
2022-12-12T17:16:28.081Z,14.18
2022-12-12T17:18:55.264Z,13.73
2022-12-12T17:21:28.776Z,14.57
2022-12-12T17:23:55.733Z,13.50
2022-12-12T17:26:23.586Z,13.63
2022-12-12T17:28:56.792Z,12.77
2022-12-12T17:31:23.770Z,14.43
2022-12-12T17:33:51.440Z,12.23
2022-12-12T17:36:26.839Z,15.38
2022-12-12T17:38:53.831Z,12.20
2022-12-12T17:41:27.788Z,13.32
2022-12-12T17:43:56.305Z,11.57
2022-12-12T17:46:25.088Z,11.75
2022-12-12T17:49:00.019Z,12.38
2022-12-12T17:51:26.974Z,11.35
2022-12-12T17:53:54.852Z,12.23
2022-12-12T17:56:30.831Z,12.35
2022-12-12T17:58:58.129Z,11.65
2022-12-12T18:01:37.953Z,12.55
2022-12-12T18:04:06.167Z,12.48
2022-12-12T18:06:41.814Z,11.80
2022-12-12T18:09:08.976Z,12.18
2022-12-12T18:11:44.981Z,12.50
2022-12-12T18:14:18.563Z,12.32
2022-12-12T18:16:57.886Z,11.70
2022-12-12T18:19:27.534Z,11.77
2022-12-12T18:22:02.201Z,13.57
2022-12-12T18:24:36.896Z,13.30
2022-12-12T18:27:04.466Z,13.90
2022-12-12T18:29:39.252Z,15.27
2022-12-12T18:32:06.315Z,14.70
2022-12-12T18:34:33.401Z,13.93
2022-12-12T18:37:06.914Z,14.43
2022-12-12T18:39:33.852Z,13.52
2022-12-12T18:42:00.758Z,12.93
2022-12-12T18:44:34.089Z,15.15
2022-12-12T18:47:00.991Z,14.50
2022-12-12T18:49:27.825Z,17.35
2022-12-12T18:52:01.087Z,17.27
2022-12-12T18:54:27.923Z,14.70
2022-12-12T18:56:54.810Z,17.98
2022-12-12T18:59:29.075Z,15.90
2022-12-12T19:01:56.088Z,14.65
2022-12-12T19:04:23.910Z,13.57
2022-12-12T19:06:58.159Z,12.88
2022-12-12T19:09:25.000Z,12.75
2022-12-12T19:11:58.273Z,14.27
2022-12-12T19:14:52.296Z,13.50
2022-12-12T19:17:28.181Z,12.50
2022-12-12T19:19:55.215Z,12.25
2022-12-12T19:22:44.483Z,12.57
2022-12-12T19:25:15.949Z,11.57
2022-12-12T19:27:43.086Z,15.45
2022-12-12T19:30:18.251Z,13.73
2022-12-12T19:32:48.936Z,13.20
2022-12-12T19:35:23.188Z,13.18
2022-12-12T19:37:50.313Z,13.10
2022-12-12T19:40:17.551Z,13.13
2022-12-12T19:42:51.073Z,12.05
2022-12-12T19:45:18.301Z,11.18
2022-12-12T19:47:45.199Z,12.13
2022-12-12T19:50:19.524Z,13.00
2022-12-12T19:52:46.725Z,11.63
2022-12-12T19:55:32.974Z,11.70
2022-12-12T19:58:15.456Z,11.30
2022-12-12T20:00:52.199Z,12.07
2022-12-12T20:03:19.478Z,13.35
2022-12-12T20:05:50.495Z,11.57
2022-12-12T20:08:27.369Z,13.95
2022-12-12T20:10:54.418Z,12.95
2022-12-12T20:13:25.780Z,10.23
2022-12-12T20:15:59.115Z,13.55
2022-12-12T20:18:33.108Z,13.50
2022-12-12T20:21:10.044Z,13.55
2022-12-12T20:23:45.479Z,13.38
2022-12-12T20:26:24.045Z,12.75
2022-12-12T20:28:52.199Z,12.05
2022-12-12T20:31:22.171Z,12.15
2022-12-12T20:33:57.054Z,12.73
2022-12-12T20:36:40.054Z,11.77
2022-12-12T20:39:09.098Z,11.90
2022-12-12T20:41:47.084Z,11.38
2022-12-12T20:44:14.733Z,11.90
2022-12-12T20:46:51.096Z,12.65
2022-12-12T20:49:22.095Z,11.60
2022-12-12T20:52:00.103Z,11.70
2022-12-12T20:54:28.759Z,11.90
2022-12-12T20:56:58.649Z,12.65
2022-12-12T20:59:33.079Z,12.20
2022-12-12T21:02:09.210Z,12.90
2022-12-12T21:04:36.748Z,12.00
2022-12-12T21:07:10.124Z,11.55
2022-12-12T21:09:44.147Z,11.35
2022-12-12T21:12:22.059Z,12.00
2022-12-12T21:14:49.383Z,11.10
2022-12-12T21:17:23.105Z,12.32
2022-12-12T21:19:50.193Z,12.82
2022-12-12T21:22:24.125Z,12.13
2022-12-12T21:24:58.227Z,12.05
2022-12-12T21:27:25.118Z,12.15
2022-12-12T21:29:58.146Z,12.75
2022-12-12T21:32:27.855Z,12.00
2022-12-12T21:35:01.132Z,11.68
2022-12-12T21:37:28.056Z,11.80
2022-12-12T21:39:54.975Z,11.32
2022-12-12T21:42:28.154Z,11.15
2022-12-12T21:45:01.148Z,14.73
2022-12-12T21:47:30.357Z,11.73
2022-12-12T21:50:04.160Z,12.80
2022-12-12T21:52:31.041Z,11.80
2022-12-12T21:54:57.977Z,12.18
2022-12-12T21:57:34.168Z,11.65
2022-12-12T22:00:00.985Z,12.77
2022-12-12T22:02:35.222Z,12.30
2022-12-12T22:05:01.994Z,11.57
2022-12-12T22:07:35.167Z,11.93
2022-12-12T22:10:10.896Z,12.57
2022-12-12T22:12:56.933Z,12.82
2022-12-12T22:15:24.455Z,11.73
2022-12-12T22:17:58.175Z,12.07
2022-12-12T22:20:25.133Z,13.90
2022-12-12T22:22:58.498Z,11.68
2022-12-12T22:25:25.959Z,12.55
2022-12-12T22:27:59.162Z,12.20
2022-12-12T22:30:25.979Z,11.88
2022-12-12T22:32:59.244Z,10.68
2022-12-12T22:35:32.190Z,12.20
2022-12-12T22:37:59.864Z,11.13
2022-12-12T22:40:33.256Z,11.82
2022-12-12T22:43:06.219Z,11.77
2022-12-12T22:45:34.577Z,11.07
2022-12-12T22:48:08.205Z,12.40
2022-12-12T22:50:34.949Z,11.48
2022-12-12T22:53:08.238Z,11.73
2022-12-12T22:55:35.923Z,11.40
2022-12-12T22:58:05.420Z,12.75
2022-12-12T23:00:39.281Z,12.02
2022-12-12T23:03:07.200Z,11.10
2022-12-12T23:05:40.325Z,10.68
2022-12-12T23:08:12.846Z,12.20
2022-12-12T23:10:46.250Z,11.90
2022-12-12T23:13:13.474Z,10.80
2022-12-12T23:15:42.461Z,10.68
2022-12-12T23:18:18.293Z,11.07
2022-12-12T23:20:53.293Z,12.43
2022-12-12T23:23:20.084Z,11.60
2022-12-12T23:25:53.308Z,11.40
2022-12-12T23:28:20.182Z,12.48
2022-12-12T23:31:01.299Z,11.98
2022-12-12T23:33:36.261Z,13.10
2022-12-12T23:36:10.451Z,12.45
2022-12-12T23:38:44.306Z,11.55
2022-12-12T23:41:13.712Z,11.18
2022-12-12T23:43:48.309Z,11.75
2022-12-12T23:46:33.881Z,11.23
2022-12-12T23:49:19.402Z,10.88
2022-12-12T23:51:56.357Z,11.15
2022-12-12T23:54:38.319Z,11.55
2022-12-12T23:57:15.333Z,11.43
2022-12-12T23:59:42.152Z,11.88
